Time;durP1;ratioP1;P1;durP2;ratioP2;P2;SDS_P1;SDS_P2;PMS_P1;PMS_P2;Temp;Humidity;BMP_temperature;BMP_pressure;BME280_temperature;BME280_humidity;BME280_pressure;Samples;Min_cycle;Max_cycle;Signal;HPM_P1;HPM_P2
2023/07/12 00:00:58;;;;;;;;;;;;;;;17.94;100.00;100815.88;5004033;28;20283;-73
2023/07/12 00:03:23;;;;;;;;;;;;;;;17.93;100.00;100803.31;4990684;28;19925;-73
2023/07/12 00:05:50;;;;;;;;;;;;;;;17.87;100.00;100812.16;5022811;28;19932;-73
2023/07/12 00:08:22;;;;;;;;;;;;;;;17.83;100.00;100821.66;5000771;28;19944;-73
2023/07/12 00:10:49;;;;;;;;;;;;;;;17.77;100.00;100825.03;4988452;28;19964;-73
2023/07/12 00:13:14;;;;;;;;;;;;;;;17.73;100.00;100819.09;5004249;28;20283;-73
2023/07/12 00:15:39;;;;;;;;;;;;;;;17.70;100.00;100814.00;5005192;28;19936;-73
2023/07/12 00:18:05;;;;;;;;;;;;;;;17.61;100.00;100815.81;4989868;28;20447;-73
2023/07/12 00:20:31;;;;;;;;;;;;;;;17.63;100.00;100807.50;5011764;28;20515;-74
2023/07/12 00:22:57;;;;;;;;;;;;;;;17.59;100.00;100817.00;5009816;28;19925;-73
2023/07/12 00:25:23;;;;;;;;;;;;;;;17.60;100.00;100816.84;5013219;28;19932;-73
2023/07/12 00:27:49;;;;;;;;;;;;;;;17.58;100.00;100826.16;5018458;28;19925;-73
2023/07/12 00:30:15;;;;;;;;;;;;;;;17.52;100.00;100833.94;5017072;28;20338;-73
2023/07/12 00:32:40;;;;;;;;;;;;;;;17.21;100.00;100834.56;5008683;28;20307;-73
2023/07/12 00:35:06;;;;;;;;;;;;;;;17.20;100.00;100837.41;5003178;28;19965;-73
2023/07/12 00:37:31;;;;;;;;;;;;;;;17.27;100.00;100857.47;5001960;28;19929;-73
2023/07/12 00:39:56;;;;;;;;;;;;;;;17.32;100.00;100849.69;5006715;28;19931;-73
2023/07/12 00:42:23;;;;;;;;;;;;;;;17.26;100.00;100842.19;5008919;28;20332;-74
2023/07/12 00:44:49;;;;;;;;;;;;;;;17.27;100.00;100843.88;5005950;28;19925;-73
2023/07/12 00:47:14;;;;;;;;;;;;;;;17.30;100.00;100854.41;5005357;28;19932;-73
2023/07/12 00:49:39;;;;;;;;;;;;;;;17.27;100.00;100864.72;5001962;28;20269;-73
2023/07/12 00:52:10;;;;;;;;;;;;;;;17.18;100.00;100863.84;5004107;28;20378;-73
2023/07/12 00:54:47;;;;;;;;;;;;;;;17.28;100.00;100878.16;5001424;28;19936;-73
2023/07/12 00:57:13;;;;;;;;;;;;;;;17.36;100.00;100880.88;5004987;28;19987;-73
2023/07/12 00:59:38;;;;;;;;;;;;;;;17.33;100.00;100881.22;5004644;28;19925;-73
2023/07/12 01:02:03;;;;;;;;;;;;;;;17.39;100.00;100885.16;5005173;28;19921;-73
2023/07/12 01:04:31;;;;;;;;;;;;;;;17.42;100.00;100886.66;5000927;28;19984;-72
2023/07/12 01:06:56;;;;;;;;;;;;;;;17.42;100.00;100890.25;4985477;28;20352;-71
2023/07/12 01:09:21;;;;;;;;;;;;;;;17.50;100.00;100886.72;5005991;28;20462;-72
2023/07/12 01:11:46;;;;;;;;;;;;;;;17.48;100.00;100889.56;5004587;28;20409;-73
2023/07/12 01:14:13;;;;;;;;;;;;;;;17.46;100.00;100897.06;5003374;28;19960;-72
2023/07/12 01:16:38;;;;;;;;;;;;;;;17.45;100.00;100900.78;5004224;28;20011;-73
2023/07/12 01:19:03;;;;;;;;;;;;;;;17.45;100.00;100908.94;5007212;28;20466;-73
2023/07/12 01:21:32;;;;;;;;;;;;;;;17.40;100.00;100908.56;5010056;28;19962;-71
2023/07/12 01:23:57;;;;;;;;;;;;;;;17.42;100.00;100913.81;4995511;28;20509;-71
2023/07/12 01:26:22;;;;;;;;;;;;;;;17.27;100.00;100900.00;4992003;28;19956;-73
2023/07/12 01:28:49;;;;;;;;;;;;;;;17.21;100.00;100894.25;5008692;28;20565;-76
2023/07/12 01:31:15;;;;;;;;;;;;;;;17.13;100.00;100921.31;4992427;28;20273;-72
2023/07/12 01:33:40;;;;;;;;;;;;;;;17.22;100.00;100914.06;5008108;28;19940;-74
2023/07/12 01:36:05;;;;;;;;;;;;;;;17.20;100.00;100892.53;5005933;28;20026;-73
2023/07/12 01:38:31;;;;;;;;;;;;;;;17.19;100.00;100906.25;5008990;28;20274;-73
2023/07/12 01:40:56;;;;;;;;;;;;;;;17.22;100.00;100867.94;5007123;28;20324;-75
2023/07/12 01:43:21;;;;;;;;;;;;;;;17.17;100.00;100870.28;5008190;28;19948;-74
2023/07/12 01:45:46;;;;;;;;;;;;;;;17.21;100.00;100875.25;5004884;28;19947;-74
2023/07/12 01:48:11;;;;;;;;;;;;;;;17.13;100.00;100868.91;5005461;28;20641;-73
2023/07/12 01:50:37;;;;;;;;;;;;;;;17.07;100.00;100882.13;4992483;28;20415;-73
2023/07/12 01:53:03;;;;;;;;;;;;;;;17.06;100.00;100884.97;5006219;28;19944;-73
2023/07/12 01:55:28;;;;;;;;;;;;;;;16.99;100.00;100878.50;5004595;28;19937;-71
2023/07/12 01:57:53;;;;;;;;;;;;;;;16.96;100.00;100851.69;4990099;28;19932;-71
2023/07/12 02:00:19;;;;;;;;;;;;;;;16.90;100.00;100861.28;5007241;28;19963;-71
2023/07/12 02:02:44;;;;;;;;;;;;;;;16.89;100.00;100863.19;5005920;28;20020;-71
2023/07/12 02:05:10;;;;;;;;;;;;;;;16.90;100.00;100861.28;5012281;28;20015;-71
2023/07/12 02:07:35;;;;;;;;;;;;;;;16.96;100.00;100846.28;5007215;28;19959;-71
2023/07/12 02:10:08;;;;;;;;;;;;;;;16.95;100.00;100837.25;5016011;28;20387;-72
2023/07/12 02:12:33;;;;;;;;;;;;;;;16.73;100.00;100839.53;5024647;28;19924;-72
2023/07/12 02:14:58;;;;;;;;;;;;;;;16.54;100.00;100837.03;5017363;28;20264;-72
2023/07/12 02:17:23;;;;;;;;;;;;;;;16.45;100.00;100849.66;5016253;28;20397;-72
2023/07/12 02:19:48;;;;;;;;;;;;;;;16.19;100.00;100845.91;5005904;28;20343;-72
2023/07/12 02:22:14;;;;;;;;;;;;;;;15.98;100.00;100857.06;5018019;28;20285;-71
2023/07/12 02:24:39;;;;;;;;;;;;;;;15.83;100.00;100850.47;5015018;28;20294;-71
2023/07/12 02:27:04;;;;;;;;;;;;;;;15.69;100.00;100838.31;5014248;28;20539;-72
2023/07/12 02:29:29;;;;;;;;;;;;;;;15.63;100.00;100868.69;5026036;28;20375;-72
2023/07/12 02:31:55;;;;;;;;;;;;;;;15.71;100.00;100942.69;5015268;28;20398;-71
2023/07/12 02:34:20;;;;;;;;;;;;;;;15.71;100.00;100918.34;5017330;28;20393;-71
2023/07/12 02:36:45;;;;;;;;;;;;;;;15.85;100.00;100906.13;5016248;28;19920;-71
2023/07/12 02:39:10;;;;;;;;;;;;;;;15.77;100.00;100888.97;5017542;28;19924;-72
2023/07/12 02:41:35;;;;;;;;;;;;;;;15.74;100.00;100890.97;5012822;28;20241;-71
2023/07/12 02:44:01;;;;;;;;;;;;;;;15.66;100.00;100908.97;5015130;28;20673;-71
2023/07/12 02:46:26;;;;;;;;;;;;;;;15.62;100.00;100894.91;5014387;28;20568;-71
2023/07/12 02:48:51;;;;;;;;;;;;;;;15.63;100.00;100866.81;5015835;28;20210;-72
2023/07/12 02:51:16;;;;;;;;;;;;;;;15.65;100.00;100867.50;5015926;28;20391;-71
2023/07/12 02:53:41;;;;;;;;;;;;;;;15.57;100.00;100867.44;5011945;28;19998;-71
2023/07/12 02:56:07;;;;;;;;;;;;;;;15.58;100.00;100852.91;5014337;28;20419;-70
2023/07/12 02:58:32;;;;;;;;;;;;;;;15.55;100.00;100864.03;5014717;28;19921;-71
2023/07/12 03:00:58;;;;;;;;;;;;;;;15.54;100.00;100860.44;5015468;28;19925;-71
2023/07/12 03:03:23;;;;;;;;;;;;;;;15.49;100.00;100868.19;5014006;28;19925;-71
2023/07/12 03:05:48;;;;;;;;;;;;;;;15.46;100.00;100871.19;5014763;28;20459;-71
2023/07/12 03:08:13;;;;;;;;;;;;;;;15.38;100.00;100884.63;5018175;28;20386;-72
2023/07/12 03:10:39;;;;;;;;;;;;;;;15.39;100.00;100889.88;5015399;28;20458;-72
2023/07/12 03:13:04;;;;;;;;;;;;;;;15.36;100.00;100883.91;5012578;28;19933;-71
2023/07/12 03:15:29;;;;;;;;;;;;;;;15.31;100.00;100889.78;5017258;28;19932;-71
2023/07/12 03:17:54;;;;;;;;;;;;;;;15.35;100.00;100879.50;5012673;28;20375;-71
2023/07/12 03:20:20;;;;;;;;;;;;;;;15.34;100.00;100875.97;5017072;28;19936;-71
2023/07/12 03:22:45;;;;;;;;;;;;;;;15.30;100.00;100883.50;4999946;28;19946;-72
2023/07/12 03:25:10;;;;;;;;;;;;;;;15.32;100.00;100891.50;4995022;28;19935;-71
2023/07/12 03:27:35;;;;;;;;;;;;;;;15.33;100.00;100900.44;4994239;28;20257;-71
2023/07/12 03:30:01;;;;;;;;;;;;;;;15.33;100.00;100908.56;4995786;28;20271;-72
2023/07/12 03:32:26;;;;;;;;;;;;;;;15.28;100.00;100917.13;4993903;28;19969;-74
2023/07/12 03:34:51;;;;;;;;;;;;;;;15.32;100.00;100906.84;4997832;28;20012;-72
2023/07/12 03:37:17;;;;;;;;;;;;;;;15.27;100.00;100907.31;4995508;28;19943;-72
2023/07/12 03:39:43;;;;;;;;;;;;;;;15.29;100.00;100905.31;4995511;28;19926;-72
2023/07/12 03:42:09;;;;;;;;;;;;;;;15.25;100.00;100909.31;4992596;28;20372;-74
2023/07/12 03:44:34;;;;;;;;;;;;;;;15.30;100.00;100920.53;4997527;28;19925;-73
2023/07/12 03:46:59;;;;;;;;;;;;;;;15.48;100.00;100933.28;4993031;28;19925;-73
2023/07/12 03:49:24;;;;;;;;;;;;;;;15.39;100.00;100935.03;4995949;28;19930;-71
2023/07/12 03:51:49;;;;;;;;;;;;;;;15.46;100.00;100928.03;4992184;28;20007;-73
2023/07/12 03:54:15;;;;;;;;;;;;;;;15.47;100.00;100929.72;4993763;28;20091;-73
2023/07/12 03:56:40;;;;;;;;;;;;;;;15.54;100.00;100932.69;4975906;28;19925;-74
2023/07/12 03:59:08;;;;;;;;;;;;;;;15.58;100.00;100939.50;4995714;28;19922;-74
2023/07/12 04:01:33;;;;;;;;;;;;;;;15.51;100.00;100939.22;4991830;28;19927;-73
2023/07/12 04:03:58;;;;;;;;;;;;;;;15.65;100.00;100931.63;4987865;28;19925;-72
2023/07/12 04:06:23;;;;;;;;;;;;;;;15.54;100.00;100932.69;4990178;28;20431;-73
2023/07/12 04:08:49;;;;;;;;;;;;;;;15.48;100.00;100892.69;5011000;28;19924;-73
2023/07/12 04:11:32;;;;;;;;;;;;;;;15.68;100.00;100931.31;4993297;28;19975;-73
2023/07/12 04:14:02;;;;;;;;;;;;;;;15.63;100.00;100945.28;4994099;28;19944;-73
2023/07/12 04:16:27;;;;;;;;;;;;;;;15.68;100.00;100937.56;4992236;28;19925;-73
2023/07/12 04:18:52;;;;;;;;;;;;;;;15.68;100.00;100939.44;4995007;28;19925;-74
2023/07/12 04:21:18;;;;;;;;;;;;;;;15.58;100.00;100944.91;4993895;28;19925;-75
2023/07/12 04:23:43;;;;;;;;;;;;;;;15.54;100.00;100948.91;4997795;28;20085;-74
2023/07/12 04:26:08;;;;;;;;;;;;;;;15.52;100.00;100938.22;4993723;28;19926;-72
2023/07/12 04:28:36;;;;;;;;;;;;;;;15.51;100.00;100947.34;4995564;28;19944;-72
2023/07/12 04:31:09;;;;;;;;;;;;;;;15.54;100.00;100943.50;4990501;28;19925;-72
2023/07/12 04:33:34;;;;;;;;;;;;;;;15.58;100.00;100943.03;4987711;28;19929;-73
2023/07/12 04:36:10;;;;;;;;;;;;;;;15.55;100.00;100946.03;4992457;28;20011;-73
2023/07/12 04:38:35;;;;;;;;;;;;;;;15.48;100.00;100949.50;4990918;28;20427;-74
2023/07/12 04:41:01;;;;;;;;;;;;;;;15.54;100.00;100944.34;5000738;28;19983;-74
2023/07/12 04:43:26;;;;;;;;;;;;;;;15.50;100.00;100942.09;4998169;28;19968;-75
2023/07/12 04:45:52;;;;;;;;;;;;;;;15.58;100.00;100944.91;4987270;28;20348;-74
2023/07/12 04:48:17;;;;;;;;;;;;;;;15.70;100.00;100961.81;4973206;28;20516;-75
2023/07/12 04:50:43;;;;;;;;;;;;;;;15.69;100.00;100960.09;4989839;28;20030;-74
2023/07/12 04:53:08;;;;;;;;;;;;;;;15.75;100.00;100959.50;4987155;28;20341;-73
2023/07/12 04:55:34;;;;;;;;;;;;;;;15.60;100.00;100951.88;4985025;28;21267;-74
2023/07/12 04:57:59;;;;;;;;;;;;;;;15.65;100.00;100956.81;4987767;28;19940;-74
2023/07/12 05:00:24;;;;;;;;;;;;;;;15.71;100.00;100961.63;4987441;28;19930;-74
2023/07/12 05:02:50;;;;;;;;;;;;;;;15.78;100.00;100961.03;4982681;28;20019;-72
2023/07/12 05:05:15;;;;;;;;;;;;;;;15.73;100.00;100964.22;4986488;28;19933;-73
2023/07/12 05:07:41;;;;;;;;;;;;;;;15.96;100.00;100961.97;4983153;28;19932;-74
2023/07/12 05:10:06;;;;;;;;;;;;;;;15.87;100.00;100957.47;4984092;28;20201;-73
2023/07/12 05:12:32;;;;;;;;;;;;;;;15.84;100.00;100960.44;4984933;28;19925;-73
2023/07/12 05:14:57;;;;;;;;;;;;;;;15.98;100.00;100969.94;4971815;28;19968;-74
2023/07/12 05:17:22;;;;;;;;;;;;;;;16.09;100.00;100968.88;4987515;28;19956;-73
2023/07/12 05:19:48;;;;;;;;;;;;;;;16.14;100.00;100971.97;4987307;28;20011;-74
2023/07/12 05:22:13;;;;;;;;;;;;;;;16.09;100.00;100967.00;4984004;28;19921;-74
2023/07/12 05:24:38;;;;;;;;;;;;;;;15.96;100.00;100956.53;4988251;28;20301;-74
2023/07/12 05:27:04;;;;;;;;;;;;;;;15.90;100.00;100967.97;4983826;28;20494;-73
2023/07/12 05:29:29;;;;;;;;;;;;;;;16.07;100.00;100982.56;4987753;28;20359;-75
2023/07/12 05:31:54;;;;;;;;;;;;;;;16.15;100.00;100984.53;4986222;28;20430;-74
2023/07/12 05:34:19;;;;;;;;;;;;;;;16.19;100.00;100985.91;4986191;28;20571;-75
2023/07/12 05:36:45;;;;;;;;;;;;;;;16.11;100.00;100977.69;4996668;28;19965;-74
2023/07/12 05:39:10;;;;;;;;;;;;;;;16.18;100.00;100984.19;4996428;28;20111;-75
2023/07/12 05:41:35;;;;;;;;;;;;;;;16.12;100.00;100982.13;4988718;28;19953;-74
2023/07/12 05:44:00;;;;;;;;;;;;;;;16.26;100.00;100987.00;4986397;28;20042;-75
2023/07/12 05:46:26;;;;;;;;;;;;;;;16.28;100.00;100989.56;4992036;28;19921;-74
2023/07/12 05:48:51;;;;;;;;;;;;;;;16.38;100.00;100998.47;4993213;28;20269;-72
2023/07/12 05:51:16;;;;;;;;;;;;;;;16.40;100.00;101003.75;4987463;28;19987;-73
2023/07/12 05:53:41;;;;;;;;;;;;;;;16.39;100.00;100997.44;4991428;28;19996;-73
2023/07/12 05:56:07;;;;;;;;;;;;;;;16.15;100.00;101003.47;4993427;28;19967;-75
2023/07/12 05:58:32;;;;;;;;;;;;;;;16.30;100.00;100993.81;4989505;28;19932;-73
2023/07/12 06:00:58;;;;;;;;;;;;;;;16.46;100.00;101003.97;4986138;28;19926;-73
2023/07/12 06:03:24;;;;;;;;;;;;;;;16.59;100.00;100997.28;4985551;28;19929;-74
2023/07/12 06:05:50;;;;;;;;;;;;;;;16.87;100.00;100992.63;4992235;28;19966;-76
2023/07/12 06:08:15;;;;;;;;;;;;;;;17.07;100.00;100998.75;4998288;28;19926;-72
2023/07/12 06:10:40;;;;;;;;;;;;;;;16.90;100.00;100988.75;5003247;28;19936;-74
2023/07/12 06:13:07;;;;;;;;;;;;;;;16.98;100.00;101002.41;5010984;28;19921;-76
2023/07/12 06:15:32;;;;;;;;;;;;;;;16.90;100.00;101002.31;4993505;28;19933;-75
2023/07/12 06:17:57;;;;;;;;;;;;;;;16.88;100.00;100998.91;4974375;28;19961;-76
2023/07/12 06:20:22;;;;;;;;;;;;;;;17.06;100.00;100991.63;4996866;28;19988;-74
2023/07/12 06:22:48;;;;;;;;;;;;;;;17.17;100.00;101001.38;4995678;28;20023;-75
2023/07/12 06:25:13;;;;;;;;;;;;;;;17.07;100.00;101014.16;4996526;28;20005;-75
2023/07/12 06:27:38;;;;;;;;;;;;;;;16.98;100.00;101013.25;4995270;28;20503;-74
2023/07/12 06:30:03;;;;;;;;;;;;;;;17.20;100.00;101016.47;4995063;28;19925;-75
2023/07/12 06:32:29;;;;;;;;;;;;;;;16.94;100.00;101011.84;4994513;28;20368;-74
2023/07/12 06:34:54;;;;;;;;;;;;;;;16.93;100.00;101029.13;4990457;28;20719;-75
2023/07/12 06:37:19;;;;;;;;;;;;;;;17.09;100.00;101028.44;4995410;28;20755;-75
2023/07/12 06:39:44;;;;;;;;;;;;;;;17.20;100.00;101030.91;5006185;28;20448;-75
2023/07/12 06:42:09;;;;;;;;;;;;;;;17.06;100.00;101032.31;4998242;28;20431;-72
2023/07/12 06:44:35;;;;;;;;;;;;;;;17.13;100.00;101024.41;5001435;28;20052;-76
2023/07/12 06:47:01;;;;;;;;;;;;;;;17.43;100.00;101035.78;4997737;28;20500;-76
2023/07/12 06:49:26;;;;;;;;;;;;;;;17.55;100.00;101044.53;4993275;28;19929;-79
2023/07/12 06:51:51;;;;;;;;;;;;;;;17.50;100.00;101053.13;4973640;28;20451;-78
2023/07/12 06:54:16;;;;;;;;;;;;;;;17.39;100.00;101058.84;4996188;28;20558;-77
2023/07/12 06:56:42;;;;;;;;;;;;;;;17.28;100.00;101053.66;4989212;28;19926;-78
2023/07/12 06:59:07;;;;;;;;;;;;;;;17.21;100.00;101059.75;4985434;28;20022;-79
2023/07/12 07:01:34;;;;;;;;;;;;;;;17.26;100.00;101058.38;4994359;28;20135;-78
2023/07/12 07:03:59;;;;;;;;;;;;;;;17.01;100.00;101064.47;4996986;28;19926;-76
2023/07/12 07:06:24;;;;;;;;;;;;;;;17.28;100.00;101059.06;4998316;28;20008;-81
2023/07/12 07:08:50;;;;;;;;;;;;;;;17.35;100.00;101061.00;5018620;28;20040;-79
2023/07/12 07:11:15;;;;;;;;;;;;;;;17.05;100.00;101056.88;5002237;28;20020;-81
2023/07/12 07:13:40;;;;;;;;;;;;;;;17.14;100.00;101066.78;4992451;28;19968;-79
2023/07/12 07:16:06;;;;;;;;;;;;;;;17.22;100.00;101063.28;4991297;28;20196;-77
2023/07/12 07:18:31;;;;;;;;;;;;;;;17.18;100.00;101072.75;4993060;28;19972;-76
2023/07/12 07:20:58;;;;;;;;;;;;;;;17.30;100.00;101066.06;4980495;28;19961;-76
2023/07/12 07:23:23;;;;;;;;;;;;;;;17.41;100.00;101070.38;4992637;28;19984;-76
2023/07/12 07:25:48;;;;;;;;;;;;;;;17.48;100.00;101076.84;4996449;28;19926;-76
2023/07/12 07:28:14;;;;;;;;;;;;;;;17.54;100.00;101078.94;4993457;28;19948;-75
2023/07/12 07:30:39;;;;;;;;;;;;;;;17.67;100.00;101089.38;4978459;28;19980;-79
2023/07/12 07:33:04;;;;;;;;;;;;;;;17.86;100.00;101078.44;4996010;28;19921;-77
2023/07/12 07:35:29;;;;;;;;;;;;;;;17.72;100.00;101090.75;4995424;28;20432;-76
2023/07/12 07:37:54;;;;;;;;;;;;;;;17.80;100.00;101083.50;4993747;28;20135;-77
2023/07/12 07:40:20;;;;;;;;;;;;;;;17.63;100.00;101087.97;4992856;28;20368;-78
2023/07/12 07:42:45;;;;;;;;;;;;;;;17.72;100.00;101075.34;4979085;28;19922;-75
2023/07/12 07:45:10;;;;;;;;;;;;;;;17.91;100.00;101086.97;4976871;28;19929;-75
2023/07/12 07:47:36;;;;;;;;;;;;;;;18.01;100.00;101085.00;4974068;28;19930;-78
2023/07/12 07:50:02;;;;;;;;;;;;;;;18.20;100.00;101091.22;4979417;28;19926;-82
2023/07/12 07:52:27;;;;;;;;;;;;;;;18.13;100.00;101097.28;4990169;28;19936;-79
2023/07/12 07:54:53;;;;;;;;;;;;;;;18.22;100.00;101098.16;4995687;28;19968;-83
2023/07/12 07:57:18;;;;;;;;;;;;;;;17.83;100.00;101114.94;4994945;28;19983;-74
2023/07/12 07:59:43;;;;;;;;;;;;;;;17.93;100.00;101104.78;4994258;28;20532;-76
2023/07/12 08:02:09;;;;;;;;;;;;;;;18.02;100.00;101104.88;4979847;28;19972;-79
2023/07/12 08:04:36;;;;;;;;;;;;;;;18.09;100.00;101114.09;5003170;28;20430;-78
2023/07/12 08:07:02;;;;;;;;;;;;;;;18.32;100.00;101105.34;4978869;28;19929;-79
2023/07/12 08:09:27;;;;;;;;;;;;;;;18.41;100.00;101105.22;4978625;28;19944;-77
2023/07/12 08:11:53;;;;;;;;;;;;;;;18.34;100.00;101098.72;4995985;28;19932;-79
2023/07/12 08:14:20;;;;;;;;;;;;;;;18.83;100.00;101103.44;4994071;28;19932;-79
2023/07/12 08:16:45;;;;;;;;;;;;;;;19.25;100.00;101104.34;4994803;28;20323;-84
2023/07/12 08:19:11;;;;;;;;;;;;;;;19.30;100.00;101110.16;4988797;28;19929;-78
2023/07/12 08:21:36;;;;;;;;;;;;;;;19.31;100.00;101116.44;4993424;28;19961;-76
2023/07/12 08:24:01;;;;;;;;;;;;;;;19.38;100.00;101119.31;5000726;28;20052;-74
2023/07/12 08:26:26;;;;;;;;;;;;;;;19.49;100.00;101124.41;4995509;28;20399;-77
2023/07/12 08:28:51;;;;;;;;;;;;;;;19.30;100.00;101123.75;4978291;28;20068;-76
2023/07/12 08:31:17;;;;;;;;;;;;;;;19.40;100.00;101118.13;4978995;28;20068;-74
2023/07/12 08:33:44;;;;;;;;;;;;;;;19.30;100.00;101115.59;4990156;28;19925;-76
2023/07/12 08:36:09;;;;;;;;;;;;;;;19.24;100.00;101118.13;4995874;28;20310;-78
2023/07/12 08:38:34;;;;;;;;;;;;;;;19.04;100.00;101115.72;4978105;28;19925;-77
2023/07/12 08:41:00;;;;;;;;;;;;;;;18.70;100.00;101149.28;4996336;28;20399;-75
2023/07/12 08:43:27;;;;;;;;;;;;;;;18.95;100.00;101120.31;4992582;28;20583;-78
2023/07/12 08:45:53;;;;;;;;;;;;;;;18.71;100.00;101123.81;4993286;28;19932;-76
2023/07/12 08:48:19;;;;;;;;;;;;;;;18.86;100.00;101115.84;4977071;28;19965;-79
2023/07/12 08:50:45;;;;;;;;;;;;;;;19.11;100.00;101130.38;4998076;28;20320;-78
2023/07/12 08:53:11;;;;;;;;;;;;;;;19.56;100.00;101130.03;5004077;28;19917;-81
2023/07/12 08:55:36;;;;;;;;;;;;;;;19.72;100.00;101135.47;4987440;28;19925;-79
2023/07/12 08:58:05;;;;;;;;;;;;;;;19.83;100.00;101131.53;4993440;28;19965;-77
2023/07/12 09:00:32;;;;;;;;;;;;;;;20.15;100.00;101127.00;4993008;28;19932;-76
2023/07/12 09:02:57;;;;;;;;;;;;;;;20.28;100.00;101122.88;4986287;28;20032;-75
2023/07/12 09:05:24;;;;;;;;;;;;;;;19.95;100.00;101145.66;4989206;28;20401;-75
2023/07/12 09:07:55;;;;;;;;;;;;;;;20.08;100.00;101134.22;4998797;28;19960;-76
2023/07/12 09:10:28;;;;;;;;;;;;;;;20.03;100.00;101139.34;4997274;28;19925;-77
2023/07/12 09:12:54;;;;;;;;;;;;;;;19.71;100.00;101132.91;4985451;28;20016;-74
2023/07/12 09:15:19;;;;;;;;;;;;;;;19.70;100.00;101133.91;4989848;28;19925;-77
2023/07/12 09:17:44;;;;;;;;;;;;;;;19.90;100.00;101134.44;4976591;28;19936;-72
2023/07/12 09:20:29;;;;;;;;;;;;;;;20.07;100.00;101133.34;4991369;28;19925;-78
2023/07/12 09:22:55;;;;;;;;;;;;;;;20.22;100.00;101130.75;4994502;28;19936;-77
2023/07/12 09:25:22;;;;;;;;;;;;;;;20.46;100.00;101133.56;4994981;28;19913;-75
2023/07/12 09:27:48;;;;;;;;;;;;;;;20.29;100.00;101128.16;4993416;28;19968;-78
2023/07/12 09:30:17;;;;;;;;;;;;;;;20.40;100.00;101129.63;4995133;28;19925;-76
2023/07/12 09:32:42;;;;;;;;;;;;;;;20.81;100.00;101117.69;4993451;28;19936;-74
2023/07/12 09:35:23;;;;;;;;;;;;;;;20.70;100.00;101126.25;4995064;28;19965;-74
2023/07/12 09:37:54;;;;;;;;;;;;;;;20.33;100.00;101123.22;4996022;28;19921;-74
2023/07/12 09:40:20;;;;;;;;;;;;;;;20.33;100.00;101115.88;4979280;28;20265;-76
2023/07/12 09:42:46;;;;;;;;;;;;;;;20.51;100.00;101114.78;4992105;28;20426;-75
2023/07/12 09:45:12;;;;;;;;;;;;;;;20.78;100.00;101088.88;4977416;28;20143;-76
2023/07/12 09:47:47;;;;;;;;;;;;;;;21.22;100.00;101111.06;4995775;28;19934;-74
2023/07/12 09:50:16;;;;;;;;;;;;;;;21.05;100.00;101116.66;4997534;28;19925;-80
2023/07/12 09:52:46;;;;;;;;;;;;;;;21.03;100.00;101106.97;4996493;28;19948;-80
2023/07/12 09:55:16;;;;;;;;;;;;;;;20.98;100.00;101110.22;5003523;28;19971;-77
2023/07/12 09:57:45;;;;;;;;;;;;;;;20.83;100.00;101100.13;5003525;28;19967;-75
2023/07/12 10:00:29;;;;;;;;;;;;;;;20.85;100.00;101108.09;4994866;28;19928;-73
2023/07/12 10:03:11;;;;;;;;;;;;;;;21.35;100.00;101108.56;5004981;28;20658;-76
2023/07/12 10:05:36;;;;;;;;;;;;;;;21.51;100.00;101102.13;5002089;28;19921;-79
2023/07/12 10:08:06;;;;;;;;;;;;;;;21.54;100.00;101103.63;5001439;28;19928;-79
2023/07/12 10:10:35;;;;;;;;;;;;;;;21.90;100.00;101107.53;4995295;28;19933;-76
2023/07/12 10:13:12;;;;;;;;;;;;;;;21.82;100.00;101098.41;4996878;28;20388;-74
2023/07/12 10:15:38;;;;;;;;;;;;;;;21.75;100.00;101115.72;4992486;28;19925;-73
2023/07/12 10:18:03;;;;;;;;;;;;;;;22.08;100.00;101099.81;4993616;28;19932;-76
2023/07/12 10:20:28;;;;;;;;;;;;;;;22.49;100.00;101114.03;4992072;28;20250;-75
2023/07/12 10:22:54;;;;;;;;;;;;;;;22.68;94.95;101120.78;4995430;28;19949;-76
2023/07/12 10:25:25;;;;;;;;;;;;;;;22.00;92.59;101121.78;4991507;28;19955;-74
2023/07/12 10:27:53;;;;;;;;;;;;;;;21.91;92.17;101107.38;4991223;28;19944;-74
2023/07/12 10:30:19;;;;;;;;;;;;;;;22.08;95.75;101115.38;4996511;28;19925;-74
2023/07/12 10:32:47;;;;;;;;;;;;;;;22.39;88.23;101106.09;4989568;28;20044;-78
2023/07/12 10:35:21;;;;;;;;;;;;;;;22.81;94.26;101118.19;4996442;28;19956;-80
2023/07/12 10:37:47;;;;;;;;;;;;;;;23.21;86.47;101118.63;4991919;28;20360;-73
2023/07/12 10:40:16;;;;;;;;;;;;;;;23.63;84.16;101120.63;5013039;28;19937;-74
2023/07/12 10:42:42;;;;;;;;;;;;;;;23.61;85.89;101120.84;4990383;28;19925;-75
2023/07/12 10:45:07;;;;;;;;;;;;;;;23.55;75.64;101113.41;4992576;28;20008;-73
2023/07/12 10:47:36;;;;;;;;;;;;;;;22.17;83.10;101136.94;4978639;28;20012;-75
2023/07/12 10:50:04;;;;;;;;;;;;;;;21.98;89.73;101123.84;4990470;28;19936;-74
2023/07/12 10:52:34;;;;;;;;;;;;;;;22.68;76.61;101120.78;4992765;28;20407;-76
2023/07/12 10:55:02;;;;;;;;;;;;;;;21.98;81.54;101126.59;4992632;28;19926;-74
2023/07/12 10:57:28;;;;;;;;;;;;;;;21.57;84.88;101125.97;4992298;28;19925;-75
2023/07/12 11:00:05;;;;;;;;;;;;;;;21.99;83.83;101123.66;4976936;28;19921;-77
2023/07/12 11:02:40;;;;;;;;;;;;;;;22.46;87.26;101115.28;4990130;28;19928;-78
2023/07/12 11:05:25;;;;;;;;;;;;;;;22.76;82.90;101124.25;4979603;28;19936;-74
2023/07/12 11:07:51;;;;;;;;;;;;;;;22.98;76.98;101121.50;4989813;28;20380;-72
2023/07/12 11:10:17;;;;;;;;;;;;;;;23.04;76.28;101119.91;4992943;28;19921;-76
2023/07/12 11:12:46;;;;;;;;;;;;;;;24.03;72.27;101109.97;4996618;28;19926;-81
2023/07/12 11:15:21;;;;;;;;;;;;;;;24.64;75.14;101108.28;4994398;28;20183;-75
2023/07/12 11:17:53;;;;;;;;;;;;;;;24.95;66.00;101108.81;4992321;28;20580;-81
2023/07/12 11:20:21;;;;;;;;;;;;;;;25.18;61.32;101122.16;4992821;28;19922;-77
2023/07/12 11:23:04;;;;;;;;;;;;;;;25.63;63.22;101121.53;4995352;28;20145;-76
2023/07/12 11:25:31;;;;;;;;;;;;;;;26.70;57.83;101117.63;4994818;28;20021;-77
2023/07/12 11:28:03;;;;;;;;;;;;;;;26.47;63.33;101108.00;4993584;28;19921;-76
2023/07/12 11:30:37;;;;;;;;;;;;;;;26.11;62.21;101114.03;4995565;28;20380;-75
2023/07/12 11:33:15;;;;;;;;;;;;;;;25.75;64.99;101110.75;4978084;28;20083;-74
2023/07/12 11:36:01;;;;;;;;;;;;;;;24.80;61.22;101123.56;4998631;28;19926;-73
2023/07/12 11:38:27;;;;;;;;;;;;;;;25.05;67.79;101120.22;4996182;28;19952;-76
2023/07/12 11:40:53;;;;;;;;;;;;;;;25.15;60.90;101106.13;4990861;28;19930;-71
2023/07/12 11:43:28;;;;;;;;;;;;;;;24.32;61.08;101118.09;4990707;28;20390;-73
2023/07/12 11:45:55;;;;;;;;;;;;;;;24.04;62.47;101117.13;4976387;28;20699;-76
2023/07/12 11:48:21;;;;;;;;;;;;;;;23.67;62.52;101121.91;4994470;28;19965;-76
2023/07/12 11:50:47;;;;;;;;;;;;;;;23.63;63.33;101121.47;4996287;28;19961;-77
2023/07/12 11:53:13;;;;;;;;;;;;;;;23.03;69.37;101119.03;4978190;28;19932;-78
2023/07/12 11:55:39;;;;;;;;;;;;;;;22.53;76.30;101129.03;4978097;28;19922;-76
2023/07/12 11:58:27;;;;;;;;;;;;;;;21.99;80.18;101139.22;4996088;28;19921;-79
2023/07/12 12:00:53;;;;;;;;;;;;;;;22.04;81.58;101144.97;4991114;28;20249;-78
2023/07/12 12:03:19;;;;;;;;;;;;;;;22.39;82.46;101133.44;4992566;28;20037;-75
2023/07/12 12:05:44;;;;;;;;;;;;;;;22.40;78.48;101133.25;4991138;28;19925;-73
2023/07/12 12:08:20;;;;;;;;;;;;;;;23.05;78.17;101148.94;4993995;28;19948;-77
2023/07/12 12:10:46;;;;;;;;;;;;;;;22.51;76.38;101163.94;4977946;28;19932;-76
2023/07/12 12:13:15;;;;;;;;;;;;;;;22.11;80.77;101150.53;4993763;28;19941;-76
2023/07/12 12:15:43;;;;;;;;;;;;;;;21.76;81.13;101163.88;4978314;28;19936;-72
2023/07/12 12:18:14;;;;;;;;;;;;;;;21.64;79.94;101158.00;4989341;28;20364;-75
2023/07/12 12:20:39;;;;;;;;;;;;;;;21.75;79.59;101159.44;4995534;28;19925;-75
2023/07/12 12:23:15;;;;;;;;;;;;;;;22.02;78.18;101161.56;4990583;28;19917;-80
2023/07/12 12:25:47;;;;;;;;;;;;;;;23.28;72.72;101147.97;4995030;28;19994;-77